Time;durP1;ratioP1;P1;durP2;ratioP2;P2;SDS_P1;SDS_P2;PMS_P1;PMS_P2;Temp;Humidity;BMP_temperature;BMP_pressure;BME280_temperature;BME280_humidity;BME280_pressure;Samples;Min_cycle;Max_cycle;Signal;HPM_P1;HPM_P2
2022/07/19 00:02:56;;;;;;;4.07;3.67;;;23.30;59.90;;;;;;10448483;28;20715;-78
2022/07/19 00:07:59;;;;;;;3.73;3.53;;;23.30;61.00;;;;;;10444975;28;20306;-78
2022/07/19 00:13:02;;;;;;;4.10;3.80;;;23.30;61.80;;;;;;10448006;28;20236;-78
2022/07/19 00:18:04;;;;;;;7.17;4.17;;;23.30;62.50;;;;;;10447134;28;20208;-77
2022/07/19 00:23:07;;;;;;;3.70;3.50;;;23.30;61.20;;;;;;10445662;28;20584;-78
2022/07/19 00:28:09;;;;;;;3.83;3.53;;;23.30;61.00;;;;;;10446665;28;20646;-78
2022/07/19 00:33:11;;;;;;;4.07;3.40;;;23.20;61.20;;;;;;10447011;28;20225;-76
2022/07/19 00:38:16;;;;;;;3.67;3.40;;;23.20;61.30;;;;;;10447209;28;20193;-78
2022/07/19 00:43:18;;;;;;;4.30;4.00;;;23.10;61.00;;;;;;10446564;28;20645;-78
2022/07/19 00:48:20;;;;;;;4.10;3.73;;;23.00;62.00;;;;;;10445509;28;20591;-78
2022/07/19 00:53:25;;;;;;;3.60;3.40;;;23.00;62.60;;;;;;10431850;22;20246;-80
2022/07/19 00:58:28;;;;;;;3.90;3.53;;;23.00;63.00;;;;;;10374966;28;20267;-82
2022/07/19 01:03:30;;;;;;;5.57;3.73;;;22.90;62.30;;;;;;10375790;28;20253;-83
2022/07/19 01:08:33;;;;;;;4.03;3.73;;;22.90;62.30;;;;;;10367809;28;20257;-82
2022/07/19 01:13:35;;;;;;;4.70;3.57;;;22.80;62.50;;;;;;10396392;28;20584;-80
2022/07/19 01:18:38;;;;;;;3.93;3.50;;;22.80;63.00;;;;;;10401679;28;20203;-80
2022/07/19 01:23:41;;;;;;;5.10;4.30;;;22.70;62.60;;;;;;10401178;28;20238;-80
2022/07/19 01:28:43;;;;;;;4.47;3.90;;;22.70;62.30;;;;;;10398412;28;20222;-80
2022/07/19 01:33:46;;;;;;;4.00;3.70;;;22.60;62.30;;;;;;10398173;28;20602;-80
2022/07/19 01:38:50;;;;;;;4.40;4.10;;;22.60;63.80;;;;;;10379668;28;20199;-80
2022/07/19 01:43:52;;;;;;;4.03;3.73;;;22.50;62.20;;;;;;10400923;28;20230;-80
2022/07/19 01:48:54;;;;;;;4.43;4.03;;;22.40;62.80;;;;;;10401294;28;20218;-80
2022/07/19 01:53:57;;;;;;;4.30;3.90;;;22.40;62.60;;;;;;10400160;28;20233;-80
2022/07/19 01:59:00;;;;;;;4.03;3.67;;;22.30;62.70;;;;;;10399134;28;20265;-80
2022/07/19 02:04:02;;;;;;;6.47;3.73;;;22.20;62.80;;;;;;10402156;28;20222;-81
2022/07/19 02:09:05;;;;;;;4.67;3.77;;;22.20;62.80;;;;;;10403356;28;20233;-82
2022/07/19 02:14:09;;;;;;;4.90;3.50;;;22.20;63.20;;;;;;10402008;28;20230;-80
2022/07/19 02:19:12;;;;;;;4.40;4.10;;;22.10;62.70;;;;;;10399348;28;20573;-81
2022/07/19 02:24:15;;;;;;;3.50;3.30;;;22.10;62.60;;;;;;10398614;28;20305;-80
2022/07/19 02:29:17;;;;;;;3.70;3.43;;;22.00;63.00;;;;;;10408464;28;20222;-81
2022/07/19 02:34:19;;;;;;;4.30;3.77;;;21.90;63.10;;;;;;10396621;28;20613;-82
2022/07/19 02:39:23;;;;;;;4.53;3.50;;;21.90;63.60;;;;;;10399860;28;20203;-80
2022/07/19 02:44:25;;;;;;;3.87;3.57;;;21.90;63.70;;;;;;10402750;28;20283;-80
2022/07/19 02:49:27;;;;;;;3.60;3.30;;;21.90;62.90;;;;;;10394517;28;20218;-80
2022/07/19 02:54:30;;;;;;;4.00;3.80;;;21.80;63.30;;;;;;10406501;28;20237;-83
2022/07/19 02:59:32;;;;;;;4.07;3.77;;;21.80;64.20;;;;;;10404755;28;20262;-80
2022/07/19 03:04:34;;;;;;;4.70;3.60;;;21.90;63.70;;;;;;10403304;28;20219;-80
2022/07/19 03:09:38;;;;;;;4.40;4.00;;;21.80;62.90;;;;;;10399152;28;20221;-80
2022/07/19 03:14:40;;;;;;;3.97;3.67;;;21.80;63.10;;;;;;10386133;28;20230;-80
2022/07/19 03:19:42;;;;;;;3.93;3.63;;;21.70;62.40;;;;;;10391436;28;20289;-80
2022/07/19 03:24:46;;;;;;;3.23;3.03;;;21.70;63.50;;;;;;10389094;28;20222;-80
2022/07/19 03:29:48;;;;;;;4.10;3.77;;;21.60;64.90;;;;;;10388912;28;20249;-82
2022/07/19 03:34:50;;;;;;;4.00;3.70;;;21.60;63.20;;;;;;10371562;28;20761;-80
2022/07/19 03:39:53;;;;;;;3.83;3.63;;;21.60;63.70;;;;;;10374396;28;20659;-81
2022/07/19 03:44:55;;;;;;;4.20;3.90;;;21.60;63.20;;;;;;10385822;28;20249;-80
2022/07/19 03:49:58;;;;;;;4.87;4.30;;;21.60;64.70;;;;;;10383866;28;20687;-80
2022/07/19 03:55:01;;;;;;;8.33;3.93;;;21.60;64.70;;;;;;10390125;28;20284;-80
2022/07/19 04:00:05;;;;;;;4.50;4.00;;;21.60;66.10;;;;;;10393170;28;20571;-80
2022/07/19 04:05:13;;;;;;;4.23;3.93;;;21.60;65.60;;;;;;10382845;28;20214;-80
2022/07/19 04:10:17;;;;;;;4.00;3.70;;;21.60;66.00;;;;;;10381038;28;20223;-80
2022/07/19 04:15:19;;;;;;;3.87;3.57;;;21.60;64.90;;;;;;10383202;28;20629;-80
2022/07/19 04:20:21;;;;;;;3.87;3.57;;;21.60;64.00;;;;;;10384051;28;20305;-80
2022/07/19 04:25:25;;;;;;;4.83;4.43;;;21.50;64.90;;;;;;10385633;28;20706;-81
2022/07/19 04:30:27;;;;;;;4.30;3.97;;;21.40;65.00;;;;;;10382150;28;20227;-80
2022/07/19 04:35:29;;;;;;;3.70;3.50;;;21.50;65.10;;;;;;10373621;28;20697;-81
2022/07/19 04:40:33;;;;;;;5.57;4.00;;;21.50;65.60;;;;;;10369763;28;20590;-81
2022/07/19 04:45:35;;;;;;;5.20;3.57;;;21.50;66.60;;;;;;10363634;28;20244;-79
2022/07/19 04:50:38;;;;;;;4.70;3.67;;;21.50;66.50;;;;;;10369817;28;20238;-79
2022/07/19 04:55:44;;;;;;;4.43;4.13;;;21.50;66.90;;;;;;10377012;28;20230;-78
2022/07/19 05:00:47;;;;;;;5.07;4.53;;;21.50;66.50;;;;;;10376780;28;20191;-79
2022/07/19 05:05:49;;;;;;;4.47;4.07;;;21.50;67.00;;;;;;10380044;28;20241;-78
2022/07/19 05:10:52;;;;;;;4.70;4.30;;;21.50;67.20;;;;;;10365604;28;20215;-79
2022/07/19 05:15:54;;;;;;;4.63;4.27;;;21.50;66.70;;;;;;10378459;28;20309;-80
2022/07/19 05:20:56;;;;;;;5.13;4.73;;;21.60;66.70;;;;;;10377359;28;20293;-81
2022/07/19 05:26:00;;;;;;;5.83;4.47;;;21.60;67.10;;;;;;10376271;28;20230;-79
2022/07/19 05:31:02;;;;;;;4.40;4.10;;;21.70;66.50;;;;;;10384143;28;20253;-79
2022/07/19 05:36:05;;;;;;;5.40;5.00;;;21.70;67.90;;;;;;10382624;28;20245;-79
2022/07/19 05:41:10;;;;;;;5.07;4.67;;;21.70;68.60;;;;;;10383717;28;20318;-79
2022/07/19 05:46:12;;;;;;;5.30;4.90;;;21.80;68.40;;;;;;10379278;28;20251;-79
2022/07/19 05:51:14;;;;;;;5.50;4.97;;;21.80;68.10;;;;;;10382281;28;20222;-79
2022/07/19 05:56:18;;;;;;;5.80;4.77;;;21.90;68.10;;;;;;10384636;28;20298;-80
2022/07/19 06:01:22;;;;;;;4.53;4.23;;;21.90;68.50;;;;;;10385003;28;20199;-81
2022/07/19 06:06:25;;;;;;;5.50;5.00;;;22.00;68.30;;;;;;10386859;28;20202;-81
2022/07/19 06:11:28;;;;;;;5.20;4.70;;;22.00;68.40;;;;;;10388702;28;20297;-81
2022/07/19 06:16:30;;;;;;;6.00;5.50;;;22.10;68.90;;;;;;10386307;28;20298;-81
2022/07/19 06:21:33;;;;;;;6.10;5.40;;;22.10;67.90;;;;;;10393662;28;20611;-81
2022/07/19 06:26:37;;;;;;;6.30;5.43;;;22.20;67.70;;;;;;10388837;28;20205;-81
2022/07/19 06:31:39;;;;;;;6.47;5.97;;;22.30;67.90;;;;;;10370075;28;20205;-82
2022/07/19 06:36:41;;;;;;;5.60;5.20;;;22.40;68.00;;;;;;10379518;28;20264;-81
2022/07/19 06:41:46;;;;;;;5.30;4.50;;;22.60;67.90;;;;;;10371241;28;20223;-81
2022/07/19 06:46:53;;;;;;;5.20;4.80;;;22.70;65.70;;;;;;10392544;28;20194;-81
2022/07/19 06:57:06;;;;;;;5.40;5.00;;;23.20;65.10;;;;;;10377938;28;20217;-79
2022/07/19 07:02:08;;;;;;;5.77;5.30;;;23.50;65.40;;;;;;10375120;28;20202;-79
2022/07/19 07:07:10;;;;;;;24.10;18.50;;;23.70;64.50;;;;;;10373755;28;20211;-78
2022/07/19 07:12:13;;;;;;;22.00;19.60;;;24.00;64.40;;;;;;10375683;28;20680;-78
2022/07/19 07:17:15;;;;;;;10.10;6.57;;;24.30;64.90;;;;;;10376068;28;20317;-78
2022/07/19 07:22:17;;;;;;;7.67;6.40;;;24.50;64.90;;;;;;10386069;28;20269;-79
2022/07/19 07:27:21;;;;;;;11.10;6.47;;;24.80;65.10;;;;;;10369119;28;20214;-80
2022/07/19 07:32:26;;;;;;;13.70;6.53;;;25.10;64.90;;;;;;10375311;28;20690;-79
2022/07/19 07:37:28;;;;;;;10.73;7.13;;;25.30;64.50;;;;;;10375457;28;20289;-78
2022/07/19 07:42:33;;;;;;;11.53;9.20;;;25.60;63.10;;;;;;10376746;28;20221;-80
2022/07/19 07:47:35;;;;;;;16.83;9.50;;;25.90;62.70;;;;;;10391656;28;20207;-81
2022/07/19 07:52:37;;;;;;;7.03;4.70;;;26.30;60.60;;;;;;10368204;28;20226;-79
2022/07/19 07:57:43;;;;;;;5.57;5.17;;;26.60;57.30;;;;;;10374379;28;20230;-80
2022/07/19 08:02:48;;;;;;;4.63;4.03;;;27.00;58.10;;;;;;10368667;28;20222;-81
2022/07/19 08:07:51;;;;;;;3.47;3.17;;;27.30;56.30;;;;;;10375111;28;20567;-80
2022/07/19 08:12:55;;;;;;;3.70;3.40;;;27.80;55.20;;;;;;10376518;28;20222;-81
2022/07/19 08:17:57;;;;;;;4.40;2.50;;;28.20;51.50;;;;;;10373975;28;20198;-81
2022/07/19 08:22:59;;;;;;;3.40;3.13;;;28.80;51.50;;;;;;10375811;28;20702;-81
2022/07/19 08:28:03;;;;;;;3.50;3.30;;;29.50;51.10;;;;;;10366022;28;20869;-81
2022/07/19 08:33:08;;;;;;;3.83;3.50;;;30.20;50.30;;;;;;10390894;28;20633;-81
2022/07/19 08:38:10;;;;;;;3.70;3.40;;;30.80;48.30;;;;;;10371367;28;20663;-78
2022/07/19 08:43:14;;;;;;;7.03;3.33;;;31.50;47.90;;;;;;10365656;28;20724;-79
2022/07/19 08:48:17;;;;;;;3.50;3.27;;;32.10;48.50;;;;;;10358876;28;20301;-78
2022/07/19 08:53:19;;;;;;;3.90;3.60;;;32.70;44.50;;;;;;10371222;28;20226;-79
2022/07/19 08:58:23;;;;;;;5.63;3.90;;;33.10;45.00;;;;;;10371540;28;20197;-80
2022/07/19 09:03:25;;;;;;;3.43;3.23;;;33.50;44.40;;;;;;10370798;28;20316;-78
2022/07/19 09:08:27;;;;;;;4.40;3.40;;;33.80;43.70;;;;;;10367512;28;20230;-78
2022/07/19 09:13:30;;;;;;;3.00;2.90;;;34.10;41.00;;;;;;10374552;28;20250;-77
2022/07/19 09:18:34;;;;;;;3.60;3.30;;;34.40;43.40;;;;;;10374380;28;20267;-77
2022/07/19 09:23:41;;;;;;;3.93;3.53;;;34.70;41.70;;;;;;10372503;28;20218;-78
2022/07/19 09:28:44;;;;;;;3.50;3.30;;;34.90;40.30;;;;;;10371071;28;20324;-78
2022/07/19 09:33:53;;;;;;;3.23;2.93;;;35.10;41.90;;;;;;10370046;28;20226;-79
2022/07/19 09:38:55;;;;;;;2.80;2.60;;;35.30;40.40;;;;;;10350924;28;20558;-79
2022/07/19 09:44:00;;;;;;;5.33;3.77;;;35.50;38.50;;;;;;10370237;28;20217;-79
2022/07/19 09:49:08;;;;;;;3.30;3.10;;;35.70;38.50;;;;;;10369470;28;20229;-81
2022/07/19 09:54:12;;;;;;;3.17;2.97;;;36.00;37.50;;;;;;10366308;28;20225;-78
2022/07/19 09:59:16;;;;;;;3.90;3.50;;;36.60;35.10;;;;;;10368729;28;20684;-78
2022/07/19 10:04:20;;;;;;;3.28;3.08;;;37.20;34.90;;;;;;10362706;28;20218;-78
2022/07/19 10:09:24;;;;;;;3.42;3.13;;;38.00;36.00;;;;;;10367403;28;20595;-77
2022/07/19 10:14:27;;;;;;;3.45;3.25;;;39.20;34.70;;;;;;10342633;28;20217;-78
2022/07/19 10:19:37;;;;;;;3.70;3.40;;;40.20;32.30;;;;;;10334169;28;20190;-77
2022/07/19 10:24:48;;;;;;;4.30;3.85;;;40.30;32.00;;;;;;10330509;28;20230;-77
2022/07/19 10:29:52;;;;;;;3.88;3.47;;;39.80;31.90;;;;;;10334663;28;20310;-78
2022/07/19 10:35:15;;;;;;;3.40;3.13;;;38.40;33.10;;;;;;10335325;28;20218;-76
2022/07/19 10:40:40;;;;;;;4.00;3.70;;;36.90;34.10;;;;;;10333700;28;20206;-78
2022/07/19 10:46:04;;;;;;;4.20;3.63;;;35.50;35.70;;;;;;10331224;28;20304;-76
2022/07/19 10:51:07;;;;;;;3.90;3.70;;;34.40;37.70;;;;;;10343976;28;20222;-77
2022/07/19 10:56:19;;;;;;;4.03;3.70;;;33.70;36.50;;;;;;10342443;28;20325;-79
2022/07/19 11:01:24;;;;;;;3.50;3.20;;;33.10;38.90;;;;;;10343556;28;20195;-77
2022/07/19 11:06:28;;;;;;;3.60;3.40;;;32.60;40.30;;;;;;10342843;28;20211;-78
2022/07/19 11:11:30;;;;;;;5.00;4.00;;;32.10;40.30;;;;;;10336677;28;20801;-77
2022/07/19 11:16:34;;;;;;;2.73;2.53;;;31.90;38.90;;;;;;10346005;28;20301;-78
2022/07/19 11:21:37;;;;;;;4.33;3.80;;;31.60;40.50;;;;;;10344855;28;20702;-78
2022/07/19 11:26:41;;;;;;;4.60;4.20;;;31.40;40.10;;;;;;10346584;28;20699;-78
2022/07/19 11:31:48;;;;;;;4.07;3.87;;;31.20;40.00;;;;;;10374751;28;20229;-78
2022/07/19 11:36:57;;;;;;;7.40;4.00;;;31.10;41.30;;;;;;10369900;28;20661;-79
2022/07/19 11:41:59;;;;;;;4.37;3.97;;;30.90;42.10;;;;;;10374285;28;20209;-77
2022/07/19 11:47:03;;;;;;;5.30;5.00;;;30.70;43.10;;;;;;10375068;28;20199;-77
2022/07/19 11:52:05;;;;;;;3.63;3.43;;;30.60;42.50;;;;;;10388112;28;20257;-79
2022/07/19 11:57:25;;;;;;;5.53;3.10;;;30.50;41.30;;;;;;10368050;28;20230;-80
2022/07/19 12:02:28;;;;;;;5.50;3.30;;;30.50;42.70;;;;;;10361653;28;20282;-78
2022/07/19 12:07:30;;;;;;;3.20;3.00;;;30.50;41.70;;;;;;10339698;28;20235;-78
2022/07/19 12:12:41;;;;;;;4.00;3.70;;;30.40;41.50;;;;;;10337770;28;20222;-79
2022/07/19 12:17:57;;;;;;;4.57;3.90;;;30.40;41.20;;;;;;10350842;28;20271;-78
2022/07/19 12:23:12;;;;;;;4.03;3.60;;;30.50;41.20;;;;;;10369113;28;20229;-79
2022/07/19 12:28:14;;;;;;;3.57;3.30;;;30.60;39.90;;;;;;10367733;28;20214;-78
2022/07/19 12:33:18;;;;;;;9.80;3.70;;;30.60;41.80;;;;;;10360778;28;20219;-78
2022/07/19 12:38:31;;;;;;;4.07;3.77;;;30.60;42.20;;;;;;10386269;28;20608;-78
2022/07/19 12:43:33;;;;;;;4.90;4.40;;;30.60;41.40;;;;;;10366372;28;20227;-79
2022/07/19 12:48:36;;;;;;;3.83;3.43;;;30.80;40.50;;;;;;10369568;28;20761;-79
2022/07/19 12:53:38;;;;;;;4.80;3.70;;;30.90;41.70;;;;;;10367407;28;20231;-78
2022/07/19 13:04:02;;;;;;;3.77;3.47;;;30.90;42.10;;;;;;10363961;28;20226;-78
2022/07/19 13:09:04;;;;;;;12.93;11.83;;;30.90;40.70;;;;;;10364524;28;20497;-79
2022/07/19 13:14:06;;;;;;;4.87;4.57;;;31.00;43.70;;;;;;10373857;28;20246;-78
2022/07/19 13:19:10;;;;;;;5.30;4.80;;;30.90;43.20;;;;;;10369990;28;20226;-77
2022/07/19 13:24:12;;;;;;;4.00;3.70;;;31.00;41.70;;;;;;10361399;28;20581;-78
2022/07/19 13:29:14;;;;;;;5.77;4.70;;;30.90;42.80;;;;;;10363161;28;20218;-78
2022/07/19 13:34:18;;;;;;;3.83;3.53;;;30.90;42.70;;;;;;10368227;28;20248;-78
2022/07/19 13:39:20;;;;;;;4.50;4.10;;;31.00;41.60;;;;;;10355734;28;20256;-78
2022/07/19 13:44:22;;;;;;;4.27;3.97;;;31.00;42.60;;;;;;10369568;28;20232;-77
2022/07/19 13:49:25;;;;;;;3.43;3.30;;;31.00;41.90;;;;;;10366868;28;20280;-78
2022/07/19 13:54:27;;;;;;;4.33;3.97;;;31.10;41.30;;;;;;10368582;28;20276;-78
2022/07/19 13:59:31;;;;;;;4.13;3.83;;;31.10;44.50;;;;;;10365008;28;20750;-77
2022/07/19 14:04:34;;;;;;;3.53;3.23;;;30.90;44.40;;;;;;10368195;28;20234;-78
2022/07/19 14:09:36;;;;;;;4.03;3.73;;;30.90;41.70;;;;;;10376318;28;20215;-77
2022/07/19 14:14:39;;;;;;;4.43;3.80;;;30.80;41.20;;;;;;10364632;28;20226;-78
2022/07/19 14:19:42;;;;;;;3.90;3.60;;;30.90;40.40;;;;;;10359062;28;20289;-77
2022/07/19 14:24:44;;;;;;;5.50;3.40;;;31.10;40.20;;;;;;10368384;28;20234;-78
2022/07/19 14:29:47;;;;;;;3.93;3.00;;;31.10;41.40;;;;;;10369008;28;20231;-77
2022/07/19 14:34:50;;;;;;;3.73;3.40;;;31.10;40.40;;;;;;10367850;28;20769;-77
2022/07/19 14:39:52;;;;;;;3.73;3.43;;;31.20;40.80;;;;;;10379250;28;20281;-77
2022/07/19 14:44:54;;;;;;;6.30;4.20;;;31.10;41.70;;;;;;10375306;28;20234;-78
2022/07/19 14:49:58;;;;;;;4.43;4.03;;;31.20;38.90;;;;;;10380652;28;20226;-78
2022/07/19 14:55:00;;;;;;;3.80;3.50;;;31.40;38.60;;;;;;10382657;28;20257;-79
2022/07/19 15:00:02;;;;;;;3.80;3.50;;;31.50;39.20;;;;;;10378169;28;20245;-78
2022/07/19 15:05:07;;;;;;;4.20;3.70;;;31.50;39.70;;;;;;10381523;28;20660;-78
2022/07/19 15:10:09;;;;;;;4.07;3.80;;;31.40;41.80;;;;;;10376426;28;20225;-78
2022/07/19 15:15:12;;;;;;;5.03;3.60;;;31.30;39.40;;;;;;10376282;28;20219;-78
2022/07/19 15:20:15;;;;;;;3.90;3.70;;;31.40;39.40;;;;;;10374938;28;20203;-78
2022/07/19 15:25:21;;;;;;;6.70;4.60;;;31.30;41.00;;;;;;10354261;28;20272;-78
2022/07/19 15:30:23;;;;;;;3.30;3.10;;;31.20;43.00;;;;;;10346836;28;20593;-77
2022/07/19 15:35:26;;;;;;;6.83;4.60;;;30.90;44.00;;;;;;10338680;28;20215;-77
2022/07/19 15:40:28;;;;;;;5.60;3.47;;;30.70;41.30;;;;;;10345948;28;20203;-77
2022/07/19 15:45:30;;;;;;;3.83;3.57;;;30.60;41.30;;;;;;10344681;28;20227;-77
2022/07/19 15:50:37;;;;;;;4.17;3.80;;;30.70;42.80;;;;;;10346112;28;20227;-77
2022/07/19 15:55:39;;;;;;;3.47;3.27;;;30.70;40.20;;;;;;10340612;28;20311;-77
2022/07/19 16:00:41;;;;;;;3.67;3.30;;;30.70;43.90;;;;;;10330297;28;20199;-77
2022/07/19 16:05:45;;;;;;;3.73;3.43;;;30.60;41.40;;;;;;10355461;28;20214;-77
2022/07/19 16:10:47;;;;;;;4.80;3.67;;;30.60;44.30;;;;;;10357870;28;20323;-79
2022/07/19 16:15:49;;;;;;;5.20;3.30;;;30.50;43.30;;;;;;10348778;28;20273;-79
2022/07/19 16:20:53;;;;;;;10.97;4.93;;;30.60;41.50;;;;;;10342906;28;20218;-79
2022/07/19 16:25:55;;;;;;;9.20;3.93;;;30.70;42.00;;;;;;10354050;28;20259;-79
2022/07/19 16:30:57;;;;;;;4.97;3.60;;;30.70;40.40;;;;;;10352386;28;20310;-79
2022/07/19 16:36:01;;;;;;;3.17;2.87;;;30.90;40.20;;;;;;10340220;28;20238;-79
2022/07/19 16:41:03;;;;;;;3.10;2.80;;;31.10;39.00;;;;;;10349165;28;20191;-79
2022/07/19 16:46:10;;;;;;;2.90;2.70;;;31.20;39.70;;;;;;10353010;28;20678;-79
2022/07/19 16:51:13;;;;;;;3.60;3.40;;;31.10;41.50;;;;;;10339197;28;20215;-78
2022/07/19 16:56:15;;;;;;;3.80;3.47;;;31.00;43.80;;;;;;10358192;28;20265;-79
2022/07/19 17:01:17;;;;;;;3.63;3.43;;;30.70;41.30;;;;;;10376888;28;20202;-79
2022/07/19 17:06:21;;;;;;;3.57;3.37;;;30.70;41.50;;;;;;10376825;28;20282;-79
2022/07/19 17:11:23;;;;;;;9.33;3.50;;;30.60;43.40;;;;;;10381214;28;20309;-79
2022/07/19 17:16:25;;;;;;;3.73;3.43;;;30.40;42.20;;;;;;10380247;28;20297;-79
2022/07/19 17:21:29;;;;;;;4.03;3.63;;;30.40;41.50;;;;;;10380797;28;20237;-79
2022/07/19 17:26:31;;;;;;;3.57;3.30;;;30.40;40.60;;;;;;10379429;28;20245;-79
2022/07/19 17:31:33;;;;;;;3.83;3.53;;;30.50;40.00;;;;;;10380667;28;20224;-79
2022/07/19 17:36:36;;;;;;;6.43;3.80;;;30.60;41.50;;;;;;10376326;28;20222;-79
2022/07/19 17:41:39;;;;;;;4.60;3.97;;;30.60;42.70;;;;;;10376469;28;20203;-79
2022/07/19 17:46:41;;;;;;;4.03;3.63;;;30.50;44.80;;;;;;10392647;28;20569;-79
2022/07/19 17:51:44;;;;;;;5.37;4.47;;;30.20;47.00;;;;;;10379711;28;20690;-79
2022/07/19 17:56:46;;;;;;;4.20;3.80;;;29.90;47.40;;;;;;10378630;28;20234;-79
2022/07/19 18:01:48;;;;;;;4.60;4.30;;;29.70;44.20;;;;;;10379912;28;20202;-79
2022/07/19 18:06:52;;;;;;;4.07;3.73;;;29.60;46.60;;;;;;10380063;28;20309;-79
2022/07/19 18:11:57;;;;;;;4.50;4.20;;;29.50;45.10;;;;;;10381006;28;20709;-79
2022/07/19 18:17:00;;;;;;;4.97;4.57;;;29.40;46.60;;;;;;10380119;28;20204;-79
2022/07/19 18:22:04;;;;;;;4.93;4.23;;;29.30;50.70;;;;;;10394571;28;20262;-79
2022/07/19 18:27:08;;;;;;;5.00;4.27;;;29.00;50.80;;;;;;10378969;28;20191;-79
2022/07/19 18:32:10;;;;;;;4.60;4.30;;;28.90;51.20;;;;;;10379126;28;20261;-79
2022/07/19 18:37:14;;;;;;;4.97;4.33;;;28.70;48.70;;;;;;10377212;28;20187;-79
2022/07/19 18:42:16;;;;;;;7.27;5.10;;;28.70;47.70;;;;;;10380738;28;20229;-79
2022/07/19 18:47:18;;;;;;;5.17;4.67;;;28.80;47.90;;;;;;10379654;28;20202;-79
2022/07/19 18:52:32;;;;;;;4.80;4.33;;;28.80;47.80;;;;;;10380684;28;20215;-79
2022/07/19 18:57:35;;;;;;;5.57;4.03;;;28.80;47.90;;;;;;10371468;28;20694;-81
2022/07/19 19:02:38;;;;;;;4.90;4.40;;;28.80;48.00;;;;;;10377569;28;20258;-79
2022/07/19 19:07:40;;;;;;;5.63;4.50;;;28.80;49.00;;;;;;10354442;28;20210;-81
2022/07/19 19:12:43;;;;;;;5.50;5.00;;;28.70;49.20;;;;;;10375308;28;20231;-79
2022/07/19 19:17:45;;;;;;;4.70;4.30;;;28.50;49.60;;;;;;10361201;28;20671;-79
2022/07/19 19:22:48;;;;;;;4.63;4.23;;;28.40;49.30;;;;;;10369019;28;20309;-78
2022/07/19 19:27:52;;;;;;;6.97;4.60;;;28.20;49.90;;;;;;10354288;28;20628;-78
2022/07/19 19:32:59;;;;;;;6.80;5.77;;;28.10;50.10;;;;;;10380919;28;20222;-79
2022/07/19 19:38:03;;;;;;;5.83;5.00;;;28.00;50.00;;;;;;10361706;28;20195;-80
2022/07/19 19:43:07;;;;;;;6.30;5.13;;;27.90;50.40;;;;;;10356779;28;20528;-80
2022/07/19 19:48:11;;;;;;;6.47;5.87;;;27.80;50.20;;;;;;10345353;28;20253;-79
2022/07/19 19:53:16;;;;;;;6.10;5.50;;;27.70;49.40;;;;;;10362429;28;20227;-80
2022/07/19 19:58:20;;;;;;;6.73;5.90;;;27.60;50.60;;;;;;10376375;28;20195;-79
2022/07/19 20:03:22;;;;;;;8.47;6.00;;;27.50;50.40;;;;;;10372055;28;20250;-78
2022/07/19 20:08:24;;;;;;;7.50;6.00;;;27.40;50.50;;;;;;10349687;28;20661;-78
2022/07/19 20:13:28;;;;;;;6.23;5.73;;;27.30;50.20;;;;;;10369665;28;20707;-78
2022/07/19 20:18:30;;;;;;;6.77;6.17;;;27.30;53.00;;;;;;10376247;28;20196;-80
2022/07/19 20:23:32;;;;;;;7.37;6.60;;;27.20;53.80;;;;;;10380190;28;20604;-80
2022/07/19 20:28:36;;;;;;;6.23;5.73;;;27.10;55.00;;;;;;10375319;28;20198;-78
2022/07/19 20:33:38;;;;;;;9.37;8.57;;;27.00;55.10;;;;;;10376241;28;20249;-79
2022/07/19 20:38:41;;;;;;;6.50;6.00;;;26.90;56.00;;;;;;10376853;28;20206;-79
2022/07/19 20:43:44;;;;;;;5.80;5.40;;;26.80;53.70;;;;;;10345445;28;20242;-79
2022/07/19 20:48:52;;;;;;;5.37;4.87;;;26.80;53.70;;;;;;10354039;28;20560;-76
2022/07/19 20:53:57;;;;;;;6.27;5.77;;;26.70;52.50;;;;;;10347589;28;20740;-77
2022/07/19 20:59:01;;;;;;;8.70;5.30;;;26.70;53.20;;;;;;10366516;28;20269;-77
2022/07/19 21:04:03;;;;;;;5.87;5.33;;;26.60;52.30;;;;;;10368054;28;20281;-77
2022/07/19 21:09:05;;;;;;;5.63;5.23;;;26.60;52.50;;;;;;10369503;28;20313;-77
2022/07/19 21:14:08;;;;;;;6.07;5.47;;;26.60;52.60;;;;;;10369034;28;20273;-77
2022/07/19 21:19:10;;;;;;;6.10;5.60;;;26.60;54.90;;;;;;10364537;28;20241;-76
2022/07/19 21:24:13;;;;;;;5.93;4.90;;;26.50;55.00;;;;;;10348719;28;20222;-77
2022/07/19 21:29:16;;;;;;;5.90;5.30;;;26.50;53.30;;;;;;10361686;28;20289;-76
2022/07/19 21:34:19;;;;;;;5.70;5.30;;;26.40;53.80;;;;;;10367237;28;20299;-77
2022/07/19 21:39:21;;;;;;;7.57;5.90;;;26.40;52.60;;;;;;10369098;28;20202;-78
2022/07/19 21:44:25;;;;;;;6.10;4.93;;;26.40;53.00;;;;;;10355820;28;20218;-78
2022/07/19 21:49:28;;;;;;;5.33;4.73;;;26.40;52.60;;;;;;10365104;28;20213;-77
2022/07/19 21:54:30;;;;;;;5.77;5.30;;;26.30;52.40;;;;;;10352063;28;20233;-77
2022/07/19 21:59:33;;;;;;;5.67;5.17;;;26.20;52.60;;;;;;10362942;28;20298;-77
2022/07/19 22:04:35;;;;;;;6.83;5.23;;;26.20;52.40;;;;;;10366806;28;20222;-77
2022/07/19 22:09:38;;;;;;;10.07;5.77;;;26.20;52.30;;;;;;10365722;28;20203;-78
2022/07/19 22:14:41;;;;;;;5.87;5.10;;;26.20;52.40;;;;;;10357544;28;20718;-79
2022/07/19 22:19:43;;;;;;;5.97;5.20;;;26.20;52.30;;;;;;10371506;28;20616;-78
2022/07/19 22:24:45;;;;;;;7.10;5.13;;;26.10;52.70;;;;;;10355853;28;20223;-78
2022/07/19 22:29:49;;;;;;;5.47;4.40;;;26.10;52.50;;;;;;10346946;28;20273;-78
2022/07/19 22:34:52;;;;;;;5.40;5.00;;;26.00;52.90;;;;;;10365533;28;20226;-78
2022/07/19 22:39:54;;;;;;;5.40;4.90;;;26.00;52.90;;;;;;10361992;28;20234;-77
2022/07/19 22:44:58;;;;;;;6.63;5.33;;;26.00;52.90;;;;;;10367634;28;20233;-78
2022/07/19 22:50:00;;;;;;;5.60;5.10;;;26.00;53.40;;;;;;10376993;28;20206;-78
2022/07/19 22:55:02;;;;;;;7.67;5.37;;;25.90;53.60;;;;;;10362674;28;20238;-78
2022/07/19 23:00:08;;;;;;;5.40;4.93;;;25.90;52.90;;;;;;10362595;28;20857;-78
2022/07/19 23:05:10;;;;;;;5.43;4.93;;;25.80;53.40;;;;;;10359869;28;20553;-78
2022/07/19 23:10:13;;;;;;;7.43;5.10;;;25.80;53.80;;;;;;10370047;28;20294;-78
2022/07/19 23:15:16;;;;;;;7.10;4.77;;;25.70;54.10;;;;;;10360197;28;20218;-78
2022/07/19 23:20:19;;;;;;;5.27;4.70;;;25.60;53.90;;;;;;10371181;28;20272;-77
2022/07/19 23:25:21;;;;;;;7.60;5.60;;;25.50;54.60;;;;;;10345084;28;20258;-78
2022/07/19 23:30:26;;;;;;;6.23;5.63;;;25.50;55.50;;;;;;10355457;28;20216;-79
2022/07/19 23:35:28;;;;;;;9.03;5.70;;;25.40;54.60;;;;;;10362995;28;20249;-78
2022/07/19 23:40:30;;;;;;;6.00;5.50;;;25.30;55.00;;;;;;10343033;28;20286;-77
2022/07/19 23:45:34;;;;;;;5.60;5.10;;;25.30;55.70;;;;;;10328281;28;20444;-77
2022/07/19 23:50:36;;;;;;;6.33;5.40;;;25.20;56.10;;;;;;10367258;28;20271;-77
2022/07/19 23:55:38;;;;;;;6.23;5.10;;;25.20;56.60;;;;;;10361556;28;20688;-77
